Hjaltland — VSTY8 — position and weather

sailwx.info

Track history (hours):
 
Tides and Currents Weather Stations Pressure Air Temp Water Temp Dewpoint Dewpoint Depression Visibility Wind Speed Wind Dir Waves Ship Positions

Hjaltland

Operator: NorthLink Orkey & Shetland Ferries Ltd

Last reported at 2020-Apr-02 21:30 UTC. Time now 2020-Apr-03 09:01 UTC.
Position N 58°54' W 002°36'.

Type: Ship. MMSI: 235450000.

Date/timePositionNaut miles runAvg speedWind from/ knotsBaromVisibWave heightAir tempDewpointWater temp
2020-Apr-02 21:30N 58°54' W 002°36'1822.2
2020-Apr-02 20:42N 58°37' W 002°31'5120.9
2020-Apr-02 18:14N 57°48' W 002°01'3914.2
2020-Apr-02 15:29N 57°09' W 002°05'0 0.0
2020-Apr-02 13:29N 57°09' W 002°05'0 0.0
2020-Apr-02 11:59N 57°09' W 002°05'0 0.0
2020-Apr-02 10:59N 57°09' W 002°05'0 0.0
2020-Apr-02 10:29N 57°09' W 002°05'0 0.0
2020-Apr-02 09:29N 57°09' W 002°05'0 0.0
2020-Apr-02 07:59N 57°09' W 002°05'0 0.0
2020-Apr-02 07:29N 57°09' W 002°05'1 0.3
2020-Apr-02 05:30N 57°08' W 002°04'11514.4
2020-Apr-01 21:31N 58°60' W 002°58'815.3
2020-Apr-01 21:00N 59°00' W 002°43'78 3.3
2020-Mar-31 21:33N 57°51' W 001°36'713.1
2020-Mar-31 21:00N 57°43' W 001°36'713.1
2020-Mar-31 20:30N 57°37' W 001°37'3112.6
2020-Mar-31 18:00N 57°09' W 002°03'1 0.8
2020-Mar-31 16:28N 57°09' W 002°05'0 0.0
2020-Mar-31 15:58N 57°09' W 002°05'0 0.0
2020-Mar-31 11:28N 57°09' W 002°05'0 0.0
2020-Mar-31 10:58N 57°09' W 002°05'0 0.0
2020-Mar-31 09:58N 57°09' W 002°05'0 0.0
2020-Mar-31 09:28N 57°09' W 002°05'0 0.0
2020-Mar-31 08:28N 57°09' W 002°05'0 0.0
2020-Mar-31 07:28N 57°09' W 002°05'0 0.0
2020-Mar-31 06:28N 57°09' W 002°05'6 4.4
2020-Mar-31 05:00N 57°13' W 001°56'714.6
2020-Mar-31 04:30N 57°19' W 001°48'1212.2
2020-Mar-31 03:30N 57°30' W 001°38'100 3.4
2020-Mar-29 22:30N 58°60' W 002°58'6 6.2
2020-Mar-29 21:30N 59°00' W 002°46'8022.8
2020-Mar-29 17:59N 57°47' W 001°45'1122.1
2020-Mar-29 17:31N 57°36' W 001°40'2121.3
2020-Mar-29 16:31N 57°16' W 001°52'10 5.2
2020-Mar-29 14:30N 57°09' W 002°05'0 0.0
2020-Mar-29 13:30N 57°09' W 002°05'0 0.0
2020-Mar-29 13:00N 57°09' W 002°05'0 0.0
2020-Mar-29 12:30N 57°09' W 002°05'0 0.0
2020-Mar-29 11:30N 57°09' W 002°05'0 0.0
2020-Mar-29 09:00N 57°09' W 002°05'26 4.7
2020-Mar-29 03:30N 57°30' W 001°37'20 0.7
2020-Mar-27 22:01N 57°50' W 001°36'714.3
2020-Mar-27 21:30N 57°43' W 001°37'38 8.3
2020-Mar-27 16:59N 57°09' W 002°05'0 0.0
2020-Mar-27 16:28N 57°09' W 002°05'0 0.0
2020-Mar-27 15:59N 57°09' W 002°05'0 0.0
2020-Mar-27 14:58N 57°09' W 002°05'0 0.0
2020-Mar-27 13:28N 57°09' W 002°05'0 0.0
2020-Mar-27 12:28N 57°09' W 002°05'0 0.0
2020-Mar-27 11:59N 57°09' W 002°05'0 0.0
2020-Mar-27 10:30N 57°09' W 002°05'0 0.0
2020-Mar-27 09:59N 57°09' W 002°05'0 0.0
2020-Mar-27 08:00N 57°09' W 002°05'6 3.2
2020-Mar-27 06:00N 57°13' W 001°56'4215.4
2020-Mar-27 03:17N 57°53' W 001°36'28 0.9
2020-Mar-25 20:30N 57°25' W 001°36'23 4.6
2020-Mar-25 15:27N 57°09' W 002°05'0 0.0
2020-Mar-25 13:27N 57°09' W 002°05'0 0.0
2020-Mar-25 12:57N 57°09' W 002°05'0 0.0
2020-Mar-25 10:27N 57°09' W 002°05'0 0.0
2020-Mar-25 08:28N 57°09' W 002°05'0 0.0
2020-Mar-25 07:58N 57°09' W 002°05'13 5.4
2020-Mar-25 05:30N 57°18' W 001°48'  
Track history (hours):
 
Tides and Currents Weather Stations Pressure Air Temp Water Temp Dewpoint Dewpoint Depression Visibility Wind Speed Wind Dir Waves Ship Positions

Hjaltland

Operator: NorthLink Orkey & Shetland Ferries Ltd

Last reported at 2020-Apr-02 21:30 UTC. Time now 2020-Apr-03 09:02 UTC.
Position N 58°54' W 002°36'.

Type: Ship. MMSI: 235450000.

Date/timePositionNaut miles runAvg speedWind from/ knotsBaromVisibWave heightAir tempDewpointWater temp
2020-Apr-02 21:30N 58°54' W 002°36'1822.2
2020-Apr-02 20:42N 58°37' W 002°31'5120.9
2020-Apr-02 18:14N 57°48' W 002°01'3914.2
2020-Apr-02 15:29N 57°09' W 002°05'0 0.0
2020-Apr-02 13:29N 57°09' W 002°05'0 0.0
2020-Apr-02 11:59N 57°09' W 002°05'0 0.0
2020-Apr-02 10:59N 57°09' W 002°05'0 0.0
2020-Apr-02 10:29N 57°09' W 002°05'0 0.0
2020-Apr-02 09:29N 57°09' W 002°05'0 0.0
2020-Apr-02 07:59N 57°09' W 002°05'0 0.0
2020-Apr-02 07:29N 57°09' W 002°05'1 0.3
2020-Apr-02 05:30N 57°08' W 002°04'11514.4
2020-Apr-01 21:31N 58°60' W 002°58'815.3
2020-Apr-01 21:00N 59°00' W 002°43'78 3.3
2020-Mar-31 21:33N 57°51' W 001°36'713.1
2020-Mar-31 21:00N 57°43' W 001°36'713.1
2020-Mar-31 20:30N 57°37' W 001°37'3112.6
2020-Mar-31 18:00N 57°09' W 002°03'1 0.8
2020-Mar-31 16:28N 57°09' W 002°05'0 0.0
2020-Mar-31 15:58N 57°09' W 002°05'0 0.0
2020-Mar-31 11:28N 57°09' W 002°05'0 0.0
2020-Mar-31 10:58N 57°09' W 002°05'0 0.0
2020-Mar-31 09:58N 57°09' W 002°05'0 0.0
2020-Mar-31 09:28N 57°09' W 002°05'0 0.0
2020-Mar-31 08:28N 57°09' W 002°05'0 0.0
2020-Mar-31 07:28N 57°09' W 002°05'0 0.0
2020-Mar-31 06:28N 57°09' W 002°05'6 4.4
2020-Mar-31 05:00N 57°13' W 001°56'714.6
2020-Mar-31 04:30N 57°19' W 001°48'1212.2
2020-Mar-31 03:30N 57°30' W 001°38'100 3.4
2020-Mar-29 22:30N 58°60' W 002°58'6 6.2
2020-Mar-29 21:30N 59°00' W 002°46'8022.8
2020-Mar-29 17:59N 57°47' W 001°45'1122.1
2020-Mar-29 17:31N 57°36' W 001°40'2121.3
2020-Mar-29 16:31N 57°16' W 001°52'10 5.2
2020-Mar-29 14:30N 57°09' W 002°05'0 0.0
2020-Mar-29 13:30N 57°09' W 002°05'0 0.0
2020-Mar-29 13:00N 57°09' W 002°05'0 0.0
2020-Mar-29 12:30N 57°09' W 002°05'0 0.0
2020-Mar-29 11:30N 57°09' W 002°05'0 0.0
2020-Mar-29 09:00N 57°09' W 002°05'26 4.7
2020-Mar-29 03:30N 57°30' W 001°37'20 0.7
2020-Mar-27 22:01N 57°50' W 001°36'714.3
2020-Mar-27 21:30N 57°43' W 001°37'38 8.3
2020-Mar-27 16:59N 57°09' W 002°05'0 0.0
2020-Mar-27 16:28N 57°09' W 002°05'0 0.0
2020-Mar-27 15:59N 57°09' W 002°05'0 0.0
2020-Mar-27 14:58N 57°09' W 002°05'0 0.0
2020-Mar-27 13:28N 57°09' W 002°05'0 0.0
2020-Mar-27 12:28N 57°09' W 002°05'0 0.0
2020-Mar-27 11:59N 57°09' W 002°05'0 0.0
2020-Mar-27 10:30N 57°09' W 002°05'0 0.0
2020-Mar-27 09:59N 57°09' W 002°05'0 0.0
2020-Mar-27 08:00N 57°09' W 002°05'6 3.2
2020-Mar-27 06:00N 57°13' W 001°56'4215.4
2020-Mar-27 03:17N 57°53' W 001°36'28 0.9
2020-Mar-25 20:30N 57°25' W 001°36'23 4.6
2020-Mar-25 15:27N 57°09' W 002°05'0 0.0
2020-Mar-25 13:27N 57°09' W 002°05'0 0.0
2020-Mar-25 12:57N 57°09' W 002°05'0 0.0
2020-Mar-25 10:27N 57°09' W 002°05'0 0.0
2020-Mar-25 08:28N 57°09' W 002°05'0 0.0
2020-Mar-25 07:58N 57°09' W 002°05'13 5.4
2020-Mar-25 05:30N 57°18' W 001°48'  

Dump ship's entire track history